createdAt,value
2019-01-09T00:00:10.780Z,5.10
2019-01-09T00:02:36.736Z,5.10
2019-01-09T00:05:03.479Z,5.20
2019-01-09T00:07:30.194Z,5.10
2019-01-09T00:09:56.198Z,5.10
2019-01-09T00:12:22.160Z,4.80
2019-01-09T00:14:48.918Z,4.60
2019-01-09T00:17:14.890Z,4.60
2019-01-09T00:19:40.869Z,4.50
2019-01-09T00:22:06.842Z,4.40
2019-01-09T00:24:32.827Z,4.30
2019-01-09T00:26:58.797Z,4.30
2019-01-09T00:29:24.778Z,4.20
2019-01-09T00:31:50.787Z,4.10
2019-01-09T00:34:16.739Z,4.10
2019-01-09T00:36:42.749Z,4.00
2019-01-09T00:39:08.708Z,4.10
2019-01-09T00:41:34.691Z,4.10
2019-01-09T00:44:00.658Z,4.20
2019-01-09T00:46:26.618Z,4.20
2019-01-09T00:48:53.312Z,4.20
2019-01-09T00:51:19.297Z,4.20
2019-01-09T00:53:45.255Z,4.10
2019-01-09T00:56:11.236Z,4.10
2019-01-09T00:58:37.923Z,4.10
2019-01-09T01:01:03.896Z,4.10
2019-01-09T01:03:30.584Z,4.10
2019-01-09T01:05:56.553Z,4.00
2019-01-09T01:08:23.272Z,4.00
2019-01-09T01:10:49.219Z,4.00
2019-01-09T01:13:15.921Z,4.10
2019-01-09T01:15:41.863Z,4.10
2019-01-09T01:18:07.831Z,4.20
2019-01-09T01:20:33.763Z,4.20
2019-01-09T01:22:59.716Z,4.30
2019-01-09T01:25:25.651Z,4.30
2019-01-09T01:27:51.618Z,4.50
2019-01-09T01:30:17.571Z,4.50
2019-01-09T01:32:43.510Z,4.60
2019-01-09T01:35:09.483Z,4.60
2019-01-09T01:37:35.417Z,4.60
2019-01-09T01:40:01.370Z,4.60
2019-01-09T01:42:27.321Z,4.50
2019-01-09T01:44:54.111Z,4.40
2019-01-09T01:47:20.060Z,4.30
2019-01-09T01:49:46.024Z,4.30
2019-01-09T01:52:11.964Z,4.30
2019-01-09T01:54:37.947Z,4.10
2019-01-09T01:57:04.630Z,4.10
2019-01-09T01:59:30.600Z,4.10
2019-01-09T02:01:57.303Z,4.00
2019-01-09T02:04:23.268Z,4.00
2019-01-09T02:06:49.960Z,4.00
2019-01-09T02:09:15.907Z,3.90
2019-01-09T02:11:41.885Z,4.00
2019-01-09T02:14:07.880Z,4.10
2019-01-09T02:16:33.888Z,4.10
2019-01-09T02:19:00.588Z,4.20
2019-01-09T02:21:26.542Z,4.20
2019-01-09T02:23:52.507Z,4.20
2019-01-09T02:26:18.454Z,4.20
2019-01-09T02:28:44.446Z,4.20
2019-01-09T02:31:10.412Z,4.10
2019-01-09T02:33:36.388Z,4.10
2019-01-09T02:36:02.341Z,4.10
2019-01-09T02:38:28.318Z,4.10
2019-01-09T02:40:55.020Z,4.00
2019-01-09T02:43:21.082Z,4.00
2019-01-09T02:45:46.993Z,4.00
2019-01-09T02:48:13.700Z,3.90
2019-01-09T02:50:39.718Z,3.90
2019-01-09T02:53:05.690Z,3.90
2019-01-09T02:55:31.687Z,3.90
2019-01-09T02:57:57.651Z,3.90
2019-01-09T03:00:23.650Z,3.90
2019-01-09T03:02:50.343Z,3.80
2019-01-09T03:05:16.339Z,3.80
2019-01-09T03:07:42.294Z,3.80
2019-01-09T03:10:08.278Z,3.80
2019-01-09T03:12:34.268Z,3.70
2019-01-09T03:15:00.426Z,3.60
2019-01-09T03:17:26.228Z,3.40
2019-01-09T03:19:52.189Z,3.30
2019-01-09T03:22:18.168Z,3.50
2019-01-09T03:24:44.107Z,3.70
2019-01-09T03:27:10.808Z,4.40
2019-01-09T03:29:36.774Z,4.40
2019-01-09T03:32:02.746Z,4.40
2019-01-09T03:34:28.720Z,4.50
2019-01-09T03:36:55.448Z,4.50
2019-01-09T03:39:22.150Z,4.30
2019-01-09T03:41:48.138Z,4.30
2019-01-09T03:44:14.096Z,4.30
2019-01-09T03:46:40.081Z,4.20
2019-01-09T03:49:06.043Z,4.20
2019-01-09T03:51:31.989Z,4.20
2019-01-09T03:53:58.707Z,4.30
2019-01-09T03:56:24.661Z,4.30
2019-01-09T03:58:51.356Z,4.30
2019-01-09T04:01:17.321Z,4.30
2019-01-09T04:03:44.036Z,4.20
2019-01-09T04:06:10.004Z,4.10
2019-01-09T04:08:35.972Z,4.00
2019-01-09T04:11:01.937Z,3.90
2019-01-09T04:13:27.920Z,3.80
2019-01-09T04:15:53.861Z,3.60
2019-01-09T04:18:20.598Z,3.30
2019-01-09T04:20:47.293Z,3.10
2019-01-09T04:23:13.258Z,3.10
2019-01-09T04:25:39.238Z,3.10
2019-01-09T04:28:05.184Z,3.00
2019-01-09T04:30:31.172Z,2.80
2019-01-09T04:32:57.128Z,2.70
2019-01-09T04:35:23.100Z,2.60
2019-01-09T04:37:49.043Z,2.50
2019-01-09T04:40:15.024Z,2.40
2019-01-09T04:42:40.967Z,2.40
2019-01-09T04:45:06.957Z,2.70
2019-01-09T04:47:32.917Z,2.70
2019-01-09T04:49:58.903Z,2.80
2019-01-09T04:52:24.871Z,2.60
2019-01-09T04:54:50.844Z,2.60
2019-01-09T04:57:16.819Z,2.60
2019-01-09T04:59:42.771Z,2.70
2019-01-09T05:02:08.770Z,2.60
2019-01-09T05:04:34.767Z,2.70
2019-01-09T05:07:01.486Z,2.70
2019-01-09T05:09:28.199Z,2.70
2019-01-09T05:11:54.192Z,2.70
2019-01-09T05:14:20.150Z,2.70
2019-01-09T05:16:46.155Z,2.70
2019-01-09T05:19:12.108Z,2.80
2019-01-09T05:21:38.080Z,2.80
2019-01-09T05:24:04.081Z,2.90
2019-01-09T05:26:30.776Z,3.00
2019-01-09T05:28:56.750Z,3.00
2019-01-09T05:31:22.697Z,3.00
2019-01-09T05:33:48.690Z,3.10
2019-01-09T05:36:14.659Z,3.20
2019-01-09T05:38:40.658Z,3.30
2019-01-09T05:41:06.609Z,3.30
2019-01-09T05:43:32.623Z,3.20
2019-01-09T05:45:58.555Z,3.40
2019-01-09T05:48:24.490Z,3.30
2019-01-09T05:50:50.446Z,3.30
2019-01-09T05:53:17.135Z,3.30
2019-01-09T05:55:43.118Z,3.20
2019-01-09T05:58:09.060Z,3.40
2019-01-09T06:00:35.033Z,3.40
2019-01-09T06:03:00.971Z,3.50
2019-01-09T06:05:27.675Z,3.50
2019-01-09T06:07:54.362Z,3.40
2019-01-09T06:10:20.359Z,3.40
2019-01-09T06:12:47.058Z,3.40
2019-01-09T06:15:13.025Z,3.30
2019-01-09T06:17:39.717Z,3.20
2019-01-09T06:20:05.666Z,3.20
2019-01-09T06:22:31.644Z,3.20
2019-01-09T06:24:57.602Z,3.20
2019-01-09T06:27:23.584Z,3.20
2019-01-09T06:29:49.584Z,3.20
2019-01-09T06:32:16.301Z,3.00
2019-01-09T06:34:42.252Z,3.00
2019-01-09T06:37:08.249Z,2.90
2019-01-09T06:39:34.960Z,2.80
2019-01-09T06:42:00.936Z,2.80
2019-01-09T06:44:27.616Z,2.70
2019-01-09T06:46:53.558Z,2.60
2019-01-09T06:49:19.539Z,2.60
2019-01-09T06:51:45.513Z,2.50
2019-01-09T06:54:11.522Z,2.50
2019-01-09T06:56:37.453Z,2.50
2019-01-09T06:59:03.482Z,2.40
2019-01-09T07:01:29.430Z,2.50
2019-01-09T07:03:56.153Z,2.60
2019-01-09T07:06:22.836Z,2.70
2019-01-09T07:08:48.801Z,2.70
2019-01-09T07:11:14.773Z,2.60
2019-01-09T07:13:40.756Z,2.60
2019-01-09T07:16:06.695Z,2.40
2019-01-09T07:18:32.665Z,2.30
2019-01-09T07:20:58.622Z,2.20
2019-01-09T07:23:25.624Z,2.20
2019-01-09T07:25:50.604Z,2.10
2019-01-09T07:28:16.551Z,2.10
2019-01-09T07:30:42.573Z,2.20
2019-01-09T07:33:08.531Z,2.20
2019-01-09T07:35:34.512Z,2.30
2019-01-09T07:38:00.472Z,2.30
2019-01-09T07:40:26.452Z,2.30
2019-01-09T07:42:52.411Z,2.50
2019-01-09T07:45:18.400Z,2.60
2019-01-09T07:47:44.347Z,2.70
2019-01-09T07:50:10.299Z,2.60
2019-01-09T07:52:37.011Z,2.90
2019-01-09T07:55:02.960Z,2.80
2019-01-09T07:57:28.964Z,2.80
2019-01-09T07:59:54.922Z,2.80
2019-01-09T08:02:21.642Z,2.80
2019-01-09T08:04:47.590Z,2.80
2019-01-09T08:07:14.305Z,2.80
2019-01-09T08:09:40.264Z,2.80
2019-01-09T08:12:06.968Z,3.20
2019-01-09T08:14:32.924Z,3.10
2019-01-09T08:16:58.914Z,3.20
2019-01-09T08:19:25.624Z,3.30
2019-01-09T08:21:51.562Z,3.30
2019-01-09T08:24:17.535Z,3.20
2019-01-09T08:26:43.505Z,3.40
2019-01-09T08:29:09.462Z,3.40
2019-01-09T08:31:36.142Z,3.40
2019-01-09T08:34:02.112Z,3.40
2019-01-09T08:36:28.823Z,3.40
2019-01-09T08:38:54.831Z,3.40
2019-01-09T08:41:21.543Z,3.50
2019-01-09T08:43:47.510Z,3.50
2019-01-09T08:46:13.462Z,3.50
2019-01-09T08:48:40.170Z,3.50
2019-01-09T08:51:06.126Z,3.50
2019-01-09T08:53:32.824Z,3.60
2019-01-09T08:55:58.819Z,3.60
2019-01-09T08:58:24.776Z,3.70
2019-01-09T09:00:50.737Z,3.70
2019-01-09T09:03:17.421Z,3.70
2019-01-09T09:05:43.395Z,3.70
2019-01-09T09:08:12.187Z,3.90
2019-01-09T09:10:36.865Z,4.00
2019-01-09T09:13:02.807Z,3.90
2019-01-09T09:15:29.554Z,4.00
2019-01-09T09:17:55.510Z,4.00
2019-01-09T09:20:21.515Z,4.10
2019-01-09T09:22:47.450Z,4.10
2019-01-09T09:25:13.433Z,4.70
2019-01-09T09:27:40.123Z,6.10
2019-01-09T09:30:06.087Z,6.10
2019-01-09T09:32:32.836Z,7.00
2019-01-09T09:34:59.530Z,7.20
2019-01-09T09:37:25.513Z,7.20
2019-01-09T09:39:52.197Z,6.90
2019-01-09T09:42:18.198Z,6.90
2019-01-09T09:44:44.168Z,6.80
2019-01-09T09:47:10.140Z,6.70
2019-01-09T09:49:36.099Z,6.60
2019-01-09T09:52:02.089Z,6.70
2019-01-09T09:54:28.049Z,6.60
2019-01-09T09:56:54.054Z,6.70
2019-01-09T09:59:20.023Z,6.90
2019-01-09T10:01:46.719Z,6.80
2019-01-09T10:04:12.693Z,6.70
2019-01-09T10:06:39.376Z,6.50
2019-01-09T10:09:05.339Z,6.50
2019-01-09T10:11:32.030Z,6.60
2019-01-09T10:13:58.003Z,6.60
2019-01-09T10:16:24.689Z,7.00
2019-01-09T10:18:50.671Z,7.00
2019-01-09T10:21:17.373Z,6.80
2019-01-09T10:23:43.349Z,6.80
2019-01-09T10:26:09.283Z,6.70
2019-01-09T10:28:35.267Z,6.50
2019-01-09T10:31:01.952Z,6.90
2019-01-09T10:33:27.928Z,6.80
2019-01-09T10:35:54.614Z,7.60
2019-01-09T10:38:20.592Z,7.70
2019-01-09T10:40:47.295Z,8.20
2019-01-09T10:43:13.302Z,8.20
2019-01-09T10:45:39.239Z,8.20
2019-01-09T10:48:05.192Z,8.30
2019-01-09T10:50:31.901Z,7.60
2019-01-09T10:52:57.857Z,7.60
2019-01-09T10:55:24.564Z,7.00
2019-01-09T10:57:50.502Z,7.00
2019-01-09T11:00:16.485Z,6.80
2019-01-09T11:02:42.464Z,6.50
2019-01-09T11:05:08.429Z,6.30
2019-01-09T11:07:34.370Z,6.20
2019-01-09T11:10:00.363Z,6.20
2019-01-09T11:12:26.323Z,6.10
2019-01-09T11:14:52.271Z,6.10
2019-01-09T11:17:18.986Z,6.00
2019-01-09T11:19:44.926Z,6.10
2019-01-09T11:22:10.907Z,6.10
2019-01-09T11:24:36.845Z,6.00
2019-01-09T11:27:02.937Z,6.00
2019-01-09T11:29:28.803Z,5.90
2019-01-09T11:31:54.763Z,6.00
2019-01-09T11:34:21.451Z,6.00
2019-01-09T11:36:47.432Z,6.00
2019-01-09T11:39:13.388Z,6.00
2019-01-09T11:41:39.368Z,6.00
2019-01-09T11:44:06.060Z,6.00
2019-01-09T11:46:32.046Z,6.00
2019-01-09T11:48:58.001Z,6.00
2019-01-09T11:51:23.950Z,6.00
2019-01-09T11:53:49.920Z,6.10
2019-01-09T11:56:15.881Z,6.00
2019-01-09T11:58:41.845Z,5.90
2019-01-09T12:01:08.510Z,5.90
2019-01-09T12:03:34.488Z,5.90
2019-01-09T12:06:00.435Z,5.90
2019-01-09T12:08:27.142Z,5.80
2019-01-09T12:10:53.176Z,5.80
2019-01-09T12:13:19.135Z,5.90
2019-01-09T12:15:45.099Z,5.90
2019-01-09T12:18:11.094Z,5.90
2019-01-09T12:20:37.045Z,5.90
2019-01-09T12:23:03.001Z,5.90
2019-01-09T12:25:29.705Z,6.00
2019-01-09T12:27:55.654Z,5.90
2019-01-09T12:30:21.628Z,6.10
2019-01-09T12:32:47.568Z,6.10
2019-01-09T12:35:13.539Z,6.10
2019-01-09T12:37:40.227Z,6.00
2019-01-09T12:40:06.190Z,6.00
2019-01-09T12:42:32.860Z,5.90
2019-01-09T12:44:59.316Z,5.90
2019-01-09T12:47:24.840Z,5.80
2019-01-09T12:49:50.810Z,5.80
2019-01-09T12:52:17.482Z,5.80
2019-01-09T12:54:43.453Z,5.80
2019-01-09T12:57:10.160Z,5.70
2019-01-09T12:59:36.101Z,5.70
2019-01-09T13:02:02.077Z,5.70
2019-01-09T13:04:28.032Z,5.70
2019-01-09T13:06:53.999Z,5.60
2019-01-09T13:09:22.384Z,5.60
2019-01-09T13:11:46.712Z,5.70
2019-01-09T13:14:12.673Z,5.70
2019-01-09T13:16:47.479Z,5.70
2019-01-09T13:19:05.404Z,5.70
2019-01-09T13:21:31.390Z,5.70
2019-01-09T13:23:57.364Z,5.60
2019-01-09T13:26:23.329Z,5.60
2019-01-09T13:28:49.300Z,5.70
2019-01-09T13:31:15.250Z,5.60
2019-01-09T13:33:41.980Z,5.60
2019-01-09T13:36:08.676Z,5.60
2019-01-09T13:38:34.641Z,5.60
2019-01-09T13:41:00.588Z,5.50
2019-01-09T13:43:26.592Z,5.50
2019-01-09T13:45:53.270Z,5.50
2019-01-09T13:48:19.241Z,5.50
2019-01-09T13:50:45.207Z,5.40
2019-01-09T13:53:11.169Z,5.40
2019-01-09T13:55:37.118Z,5.40
2019-01-09T13:58:03.094Z,5.30
2019-01-09T14:00:29.053Z,5.30
2019-01-09T14:02:55.008Z,5.20
2019-01-09T14:05:20.993Z,5.30
2019-01-09T14:07:46.943Z,5.20
2019-01-09T14:10:13.699Z,5.20
2019-01-09T14:12:46.852Z,5.20
2019-01-09T14:15:12.826Z,5.10
2019-01-09T14:17:38.806Z,5.10
2019-01-09T14:20:04.773Z,5.10
2019-01-09T14:22:33.132Z,5.10
2019-01-09T14:24:57.481Z,5.10
2019-01-09T14:27:23.429Z,5.10
2019-01-09T14:29:49.395Z,5.00
2019-01-09T14:32:15.369Z,4.80
2019-01-09T14:34:42.099Z,4.90
2019-01-09T14:37:08.063Z,4.90
2019-01-09T14:39:34.005Z,4.80
2019-01-09T14:42:00.013Z,4.80
2019-01-09T14:44:25.946Z,4.80
2019-01-09T14:46:51.898Z,4.70
2019-01-09T14:49:17.850Z,4.70
2019-01-09T14:51:44.564Z,4.50
2019-01-09T14:54:10.507Z,4.50
2019-01-09T14:56:37.225Z,4.40
2019-01-09T14:59:03.183Z,4.40
2019-01-09T15:01:31.144Z,4.40
2019-01-09T15:03:55.912Z,4.30
2019-01-09T15:06:21.883Z,4.30
2019-01-09T15:08:47.880Z,4.30
2019-01-09T15:11:14.572Z,4.20
2019-01-09T15:13:40.566Z,4.20
2019-01-09T15:16:06.515Z,4.20
2019-01-09T15:18:32.493Z,4.00
2019-01-09T15:20:59.188Z,4.00
2019-01-09T15:23:25.197Z,4.00
2019-01-09T15:25:51.146Z,3.40
2019-01-09T15:28:17.128Z,3.90
2019-01-09T15:30:43.096Z,3.80
2019-01-09T15:33:09.037Z,3.90
2019-01-09T15:35:35.751Z,3.60
2019-01-09T15:38:01.697Z,3.50
2019-01-09T15:40:28.400Z,3.40
2019-01-09T15:42:54.373Z,3.40
2019-01-09T15:45:21.089Z,3.40
2019-01-09T15:47:47.032Z,3.30
2019-01-09T15:50:13.016Z,3.40
2019-01-09T15:52:38.963Z,3.40
2019-01-09T15:55:05.695Z,3.20
2019-01-09T15:57:31.631Z,3.20
2019-01-09T15:59:58.330Z,3.20
2019-01-09T16:02:24.329Z,3.20
2019-01-09T16:04:50.298Z,3.20
2019-01-09T16:07:16.267Z,3.20
2019-01-09T16:09:42.244Z,3.10
2019-01-09T16:12:08.228Z,3.10
2019-01-09T16:14:34.191Z,3.10
2019-01-09T16:17:00.185Z,3.10
2019-01-09T16:19:26.145Z,3.10
2019-01-09T16:21:52.125Z,3.00
2019-01-09T16:24:18.827Z,2.90
2019-01-09T16:26:44.800Z,2.90
2019-01-09T16:29:10.775Z,2.90
2019-01-09T16:31:36.729Z,2.80
2019-01-09T16:34:03.452Z,2.80
2019-01-09T16:36:29.399Z,2.80
2019-01-09T16:38:55.397Z,2.80
2019-01-09T16:41:21.369Z,2.80
2019-01-09T16:43:48.096Z,2.70
2019-01-09T16:46:14.081Z,2.70
2019-01-09T16:48:40.057Z,2.70
2019-01-09T16:51:06.000Z,2.60
2019-01-09T16:53:31.967Z,2.60
2019-01-09T16:55:58.007Z,2.60
2019-01-09T16:58:24.005Z,2.60
2019-01-09T17:00:49.982Z,2.60
2019-01-09T17:03:15.983Z,2.60
2019-01-09T17:05:41.979Z,2.60
2019-01-09T17:08:07.972Z,2.60
2019-01-09T17:10:33.969Z,2.70
2019-01-09T17:13:00.675Z,2.70
2019-01-09T17:15:26.669Z,2.60
2019-01-09T17:17:52.618Z,2.60
2019-01-09T17:20:18.592Z,2.60
2019-01-09T17:22:44.590Z,2.60
2019-01-09T17:25:10.557Z,2.60
2019-01-09T17:27:36.548Z,2.70
2019-01-09T17:30:03.240Z,2.60
2019-01-09T17:32:29.234Z,2.60
2019-01-09T17:34:55.259Z,2.60
2019-01-09T17:37:21.240Z,2.60
2019-01-09T17:39:47.184Z,2.60
2019-01-09T17:42:13.901Z,2.40
2019-01-09T17:44:39.860Z,2.40
2019-01-09T17:47:05.862Z,2.40
2019-01-09T17:49:31.878Z,2.30
2019-01-09T17:51:58.593Z,2.20
2019-01-09T17:54:24.608Z,2.20
2019-01-09T17:56:50.574Z,2.20
2019-01-09T17:59:16.572Z,2.10
2019-01-09T18:01:42.535Z,2.10
2019-01-09T18:04:08.569Z,2.10
2019-01-09T18:06:34.518Z,2.10
2019-01-09T18:09:00.536Z,2.00
2019-01-09T18:11:26.507Z,2.00
2019-01-09T18:13:53.235Z,2.00
2019-01-09T18:16:19.190Z,2.00
2019-01-09T18:18:45.232Z,2.00
2019-01-09T18:21:11.192Z,2.00
2019-01-09T18:23:37.144Z,2.00
2019-01-09T18:26:03.118Z,2.00
2019-01-09T18:28:29.113Z,2.00
2019-01-09T18:31:03.334Z,2.00
2019-01-09T18:33:21.090Z,2.10
2019-01-09T18:35:47.098Z,2.10
2019-01-09T18:38:16.178Z,2.10
2019-01-09T18:40:39.079Z,2.10
2019-01-09T18:43:05.032Z,2.10
2019-01-09T18:45:31.728Z,2.20
2019-01-09T18:47:57.711Z,2.20
2019-01-09T18:50:23.693Z,2.30
2019-01-09T18:52:50.453Z,2.40
2019-01-09T18:55:17.163Z,2.40
2019-01-09T18:57:43.172Z,2.40
2019-01-09T19:00:09.931Z,2.30
2019-01-09T19:02:35.925Z,2.30
2019-01-09T19:05:01.877Z,2.20
2019-01-09T19:07:27.841Z,2.10
2019-01-09T19:09:53.812Z,2.10
2019-01-09T19:12:19.814Z,1.90
2019-01-09T19:14:45.764Z,2.00
2019-01-09T19:17:12.503Z,1.80
2019-01-09T19:19:38.492Z,1.80
2019-01-09T19:22:04.459Z,1.70
2019-01-09T19:24:30.473Z,1.60
2019-01-09T19:26:56.451Z,1.50
2019-01-09T19:29:22.430Z,1.50
2019-01-09T19:31:48.438Z,1.40
2019-01-09T19:34:14.425Z,1.40
2019-01-09T19:36:40.408Z,1.50
2019-01-09T19:39:06.359Z,1.60
2019-01-09T19:41:33.059Z,1.60
2019-01-09T19:43:59.030Z,1.60
2019-01-09T19:46:25.038Z,1.60
2019-01-09T19:48:51.038Z,1.70
2019-01-09T19:51:18.032Z,1.60
2019-01-09T19:53:43.591Z,1.60
2019-01-09T19:56:09.669Z,1.60
2019-01-09T19:58:36.002Z,1.70
2019-01-09T20:01:03.140Z,1.70
2019-01-09T20:03:30.018Z,1.60
2019-01-09T20:05:56.802Z,1.60
2019-01-09T20:08:22.911Z,1.60
2019-01-09T20:10:48.903Z,1.70
2019-01-09T20:13:15.302Z,1.70
2019-01-09T20:15:41.569Z,1.70
2019-01-09T20:18:07.808Z,1.80
2019-01-09T20:20:33.923Z,1.90
2019-01-09T20:23:00.170Z,1.80
2019-01-09T20:25:27.060Z,1.70
2019-01-09T20:27:53.236Z,1.70
2019-01-09T20:30:19.560Z,1.70
2019-01-09T20:32:45.978Z,1.80
2019-01-09T20:35:11.950Z,1.70
2019-01-09T20:37:37.937Z,1.80
2019-01-09T20:40:03.884Z,1.70
2019-01-09T20:42:29.952Z,1.70
2019-01-09T20:44:55.948Z,1.60
2019-01-09T20:47:22.704Z,1.50
2019-01-09T20:49:49.587Z,1.50
2019-01-09T20:52:15.580Z,1.40
2019-01-09T20:54:42.293Z,1.30
2019-01-09T20:57:08.361Z,1.30
2019-01-09T20:59:34.331Z,1.30
2019-01-09T21:02:00.554Z,1.30
2019-01-09T21:04:26.649Z,1.30
2019-01-09T21:06:52.662Z,1.40
2019-01-09T21:09:18.653Z,1.40
2019-01-09T21:11:45.508Z,1.30
2019-01-09T21:14:11.490Z,1.30
2019-01-09T21:16:37.470Z,1.50
2019-01-09T21:19:03.431Z,1.50
2019-01-09T21:21:29.426Z,1.60
2019-01-09T21:23:55.581Z,1.50
2019-01-09T21:26:21.600Z,1.50
2019-01-09T21:28:47.568Z,1.50
2019-01-09T21:31:14.278Z,1.60
2019-01-09T21:33:40.273Z,1.60
2019-01-09T21:36:06.280Z,1.60
2019-01-09T21:38:32.307Z,1.70
2019-01-09T21:40:58.330Z,1.70
2019-01-09T21:43:24.320Z,1.70
2019-01-09T21:45:51.031Z,1.70
2019-01-09T21:48:16.978Z,1.70
2019-01-09T21:50:43.737Z,1.70
2019-01-09T21:53:09.691Z,1.70
2019-01-09T21:55:35.686Z,1.60
2019-01-09T21:58:01.642Z,1.60
2019-01-09T22:00:27.623Z,1.50
2019-01-09T22:02:54.328Z,1.60
2019-01-09T22:05:20.279Z,1.50
2019-01-09T22:07:46.267Z,1.50
2019-01-09T22:10:12.224Z,1.50
2019-01-09T22:12:38.935Z,1.50
2019-01-09T22:15:04.915Z,1.40
2019-01-09T22:17:30.905Z,1.40
2019-01-09T22:19:57.612Z,1.40
2019-01-09T22:22:23.597Z,1.40
2019-01-09T22:24:49.540Z,1.40
2019-01-09T22:27:15.531Z,1.40
2019-01-09T22:29:41.474Z,1.40
2019-01-09T22:32:07.440Z,1.30
2019-01-09T22:34:33.378Z,1.30
2019-01-09T22:37:00.610Z,1.30
2019-01-09T22:39:25.451Z,1.30
2019-01-09T22:41:51.440Z,1.30
2019-01-09T22:44:18.139Z,1.30
2019-01-09T22:46:44.116Z,1.20
2019-01-09T22:49:10.473Z,1.30
2019-01-09T22:51:36.116Z,1.30
2019-01-09T22:54:02.128Z,1.20
2019-01-09T22:56:28.089Z,1.20
2019-01-09T22:58:54.813Z,1.10
2019-01-09T23:01:20.774Z,1.10
2019-01-09T23:03:47.485Z,1.20
2019-01-09T23:06:13.464Z,1.20
2019-01-09T23:08:39.456Z,1.20
2019-01-09T23:11:06.146Z,1.30
2019-01-09T23:13:32.123Z,1.20
2019-01-09T23:15:58.229Z,1.30
2019-01-09T23:18:24.220Z,1.40
2019-01-09T23:20:50.251Z,1.40
2019-01-09T23:23:16.217Z,1.30
2019-01-09T23:25:42.892Z,1.20
2019-01-09T23:28:08.881Z,1.20
2019-01-09T23:30:34.858Z,1.30
2019-01-09T23:33:01.604Z,1.40
2019-01-09T23:35:27.568Z,2.30
2019-01-09T23:37:53.542Z,1.40
2019-01-09T23:40:19.532Z,1.40
2019-01-09T23:42:45.480Z,1.40
2019-01-09T23:45:11.459Z,1.40
2019-01-09T23:47:37.429Z,1.40
2019-01-09T23:50:03.417Z,1.40
2019-01-09T23:52:29.391Z,1.40
2019-01-09T23:54:55.389Z,1.40
2019-01-09T23:57:21.362Z,1.40
2019-01-09T23:59:48.104Z,1.30
